Time;durP1;ratioP1;P1;durP2;ratioP2;P2;SDS_P1;SDS_P2;PMS_P1;PMS_P2;Temp;Humidity;BMP_temperature;BMP_pressure;BME280_temperature;BME280_humidity;BME280_pressure;Samples;Min_cycle;Max_cycle;Signal;HPM_P1;HPM_P2
2023/12/02 00:01:21;;;;;;;10.73;7.87;;;-0.30;99.90;;;-1.36;87.89;100247.28;5116905;28;20204;-74
2023/12/02 00:03:49;;;;;;;11.33;7.97;;;-0.30;99.90;;;-1.38;88.03;100252.66;5116616;28;20317;-74
2023/12/02 00:06:17;;;;;;;10.73;7.83;;;-0.30;99.90;;;-1.35;88.45;100241.13;5116469;28;20805;-74
2023/12/02 00:08:47;;;;;;;10.73;7.77;;;-0.30;99.90;;;-1.40;87.58;100245.78;5116718;28;20211;-75
2023/12/02 00:11:15;;;;;;;8.43;6.30;;;-0.10;99.90;;;-1.35;88.03;100246.38;5116673;28;20294;-73
2023/12/02 00:13:43;;;;;;;10.30;6.90;;;-0.30;99.90;;;-1.40;86.72;100243.16;5116251;28;20255;-75
2023/12/02 00:16:11;;;;;;;9.63;6.83;;;-0.40;99.90;;;-1.37;86.92;100241.19;5116628;28;20231;-74
2023/12/02 00:18:39;;;;;;;10.33;7.17;;;-0.30;99.90;;;-1.35;85.71;100246.38;5116191;28;20658;-75
2023/12/02 00:21:08;;;;;;;12.13;7.53;;;-0.30;99.90;;;-1.35;86.20;100247.22;5116494;28;20204;-74
2023/12/02 00:23:36;;;;;;;11.17;7.83;;;-0.30;99.90;;;-1.35;85.78;100241.97;5116404;28;20224;-73
2023/12/02 00:26:07;;;;;;;11.83;8.67;;;-0.30;99.90;;;-1.35;86.54;100244.59;5116406;28;20243;-73
2023/12/02 00:28:36;;;;;;;12.00;8.70;;;-0.30;99.90;;;-1.32;86.08;100244.38;5116050;28;20192;-74
2023/12/02 00:31:04;;;;;;;12.40;8.90;;;-0.30;99.90;;;-1.40;87.97;100243.16;5116345;28;20231;-74
2023/12/02 00:33:32;;;;;;;15.23;9.83;;;-0.40;99.90;;;-1.49;87.10;100241.13;5115849;28;20732;-75
2023/12/02 00:36:01;;;;;;;14.50;10.10;;;-0.40;99.90;;;-1.59;87.87;100246.97;5116245;28;20211;-75
2023/12/02 00:38:29;;;;;;;13.20;9.47;;;-0.50;99.90;;;-1.52;88.27;100239.56;5116215;28;20207;-74
2023/12/02 00:40:57;;;;;;;14.27;10.00;;;-0.50;99.90;;;-1.54;87.38;100242.25;5116106;28;20203;-74
2023/12/02 00:43:26;;;;;;;15.80;10.37;;;-0.50;99.90;;;-1.60;87.36;100245.28;5116062;28;20255;-75
2023/12/02 00:45:55;;;;;;;16.13;11.43;;;-0.40;99.90;;;-1.56;87.18;100249.41;5115963;28;20227;-75
2023/12/02 00:48:23;;;;;;;16.20;10.77;;;-0.50;99.90;;;-1.58;89.06;100246.03;5115897;28;20228;-74
2023/12/02 00:50:52;;;;;;;17.03;10.37;;;-0.50;99.90;;;-1.60;88.62;100247.91;5115468;28;20207;-74
2023/12/02 00:53:21;;;;;;;15.33;10.33;;;-0.50;99.90;;;-1.63;87.69;100242.84;5115894;28;20220;-75
2023/12/02 00:55:49;;;;;;;16.83;11.40;;;-0.60;99.90;;;-1.65;87.48;100241.25;5115745;28;20200;-75
2023/12/02 00:58:17;;;;;;;18.67;11.57;;;-0.60;99.90;;;-1.58;88.96;100251.28;5115755;28;20298;-74
2023/12/02 01:00:56;;;;;;;17.80;12.00;;;-0.60;99.90;;;-1.55;88.40;100239.75;5115480;28;20237;-75
2023/12/02 01:03:24;;;;;;;22.67;13.50;;;-0.50;99.90;;;-1.49;88.31;100251.63;5115551;28;20247;-75
2023/12/02 01:05:52;;;;;;;22.47;13.90;;;-0.50;99.90;;;-1.56;86.96;100254.66;5115737;28;20232;-75
2023/12/02 01:08:20;;;;;;;21.63;14.47;;;-0.40;99.90;;;-1.51;87.98;100254.38;5114662;28;20295;-75
2023/12/02 01:10:48;;;;;;;21.43;14.23;;;-0.50;99.90;;;-1.55;89.07;100251.09;5115096;28;20302;-75
2023/12/02 01:13:17;;;;;;;27.63;16.03;;;-0.50;99.90;;;-1.65;89.08;100255.25;5115095;28;20572;-74
2023/12/02 01:15:45;;;;;;;24.67;16.03;;;-0.30;99.90;;;-1.63;90.10;100248.09;5115431;28;20239;-74
2023/12/02 01:18:14;;;;;;;25.03;15.70;;;-0.60;99.90;;;-1.58;89.31;100256.53;5115325;28;20200;-75
2023/12/02 01:20:42;;;;;;;27.27;17.03;;;-0.50;99.90;;;-1.57;90.16;100257.34;5115004;28;20742;-75
2023/12/02 01:23:12;;;;;;;24.93;15.60;;;-0.50;99.90;;;-1.63;89.14;100258.59;5115189;28;20262;-74
2023/12/02 01:25:40;;;;;;;27.33;15.97;;;-0.60;99.90;;;-1.61;88.89;100261.94;5115184;28;20318;-74
2023/12/02 01:28:08;;;;;;;26.07;15.67;;;-0.60;99.90;;;-1.72;88.75;100269.66;5115199;28;20286;-75
2023/12/02 01:30:36;;;;;;;25.67;15.47;;;-0.60;99.90;;;-1.72;90.90;100274.91;5115140;28;20246;-75
2023/12/02 01:33:04;;;;;;;27.90;17.13;;;-0.70;99.90;;;-1.80;89.54;100277.16;5115033;28;20250;-74
2023/12/02 01:35:34;;;;;;;27.60;16.27;;;-0.70;99.90;;;-1.74;88.76;100276.78;5115057;28;20666;-75
2023/12/02 01:38:02;;;;;;;28.30;16.13;;;-0.70;99.90;;;-1.67;89.19;100272.84;5114969;28;20291;-75
2023/12/02 01:40:30;;;;;;;30.67;18.43;;;-0.70;99.90;;;-1.73;89.31;100275.00;5115148;28;20214;-75
2023/12/02 01:42:58;;;;;;;30.37;17.87;;;-0.70;99.90;;;-1.67;90.28;100277.25;5114822;28;20310;-74
2023/12/02 01:45:26;;;;;;;29.83;17.87;;;-0.60;99.90;;;-1.77;89.69;100276.97;5114796;28;20230;-74
2023/12/02 01:47:57;;;;;;;31.50;18.07;;;-0.70;99.90;;;-1.78;89.60;100280.53;5114852;28;20208;-74
2023/12/02 01:50:25;;;;;;;28.30;17.83;;;-0.70;99.90;;;-1.72;89.61;100274.91;5114804;28;20308;-74
2023/12/02 01:52:55;;;;;;;28.87;17.90;;;-0.70;99.90;;;-1.66;89.01;100279.78;5114256;28;20315;-75
2023/12/02 01:55:25;;;;;;;27.77;16.20;;;-0.50;99.90;;;-1.66;89.80;100285.03;5114726;28;20291;-75
2023/12/02 01:57:53;;;;;;;28.10;17.77;;;-0.60;99.90;;;-1.62;89.11;100281.28;5114727;28;20227;-75
2023/12/02 02:00:23;;;;;;;26.80;16.57;;;-0.50;99.90;;;-1.69;89.22;100273.88;5114605;28;20291;-75
2023/12/02 02:02:51;;;;;;;21.87;14.97;;;-0.60;99.90;;;-1.80;88.64;100277.16;5114497;28;20223;-74
2023/12/02 02:05:19;;;;;;;26.33;15.83;;;-0.80;99.90;;;-1.82;89.45;100275.56;5114490;28;20324;-74
2023/12/02 02:07:48;;;;;;;26.33;15.53;;;-0.80;99.90;;;-1.78;89.98;100277.06;5114363;28;20662;-74
2023/12/02 02:10:17;;;;;;;24.97;16.00;;;-0.80;99.90;;;-1.78;89.47;100280.53;5114418;28;20572;-74
2023/12/02 02:12:45;;;;;;;24.63;15.60;;;-0.80;99.90;;;-1.77;89.85;100276.97;5114317;28;20796;-74
2023/12/02 02:15:14;;;;;;;25.03;15.93;;;-0.70;99.90;;;-1.79;90.98;100281.47;5114317;28;20211;-74
2023/12/02 02:17:42;;;;;;;26.53;16.10;;;-0.70;99.90;;;-1.93;89.54;100283.25;5114292;28;20204;-74
2023/12/02 02:20:11;;;;;;;27.80;17.70;;;-0.80;99.90;;;-1.99;91.09;100276.59;5113918;28;20208;-75
2023/12/02 02:22:40;;;;;;;28.87;16.70;;;-0.90;99.90;;;-2.01;91.36;100278.44;5114200;28;20315;-75
2023/12/02 02:25:09;;;;;;;26.90;17.13;;;-1.00;99.90;;;-1.90;91.93;100280.44;5113749;28;20710;-75
2023/12/02 02:27:37;;;;;;;23.73;14.23;;;-0.80;99.90;;;-1.89;91.69;100288.22;5114198;27;20239;-75
2023/12/02 02:30:08;;;;;;;24.90;15.13;;;-0.80;99.90;;;-1.81;90.66;100283.34;5114148;28;20207;-75
2023/12/02 02:32:36;;;;;;;23.80;14.90;;;-0.70;99.90;;;-1.76;89.60;100281.28;5114096;27;20224;-74
2023/12/02 02:35:05;;;;;;;25.17;15.17;;;-0.60;99.90;;;-1.75;90.06;100280.38;5114080;28;20209;-74
2023/12/02 02:37:33;;;;;;;22.13;13.77;;;-0.70;99.90;;;-1.72;90.60;100279.31;5114070;28;20253;-75
2023/12/02 02:40:05;;;;;;;26.33;15.27;;;-0.60;99.90;;;-1.70;89.71;100280.91;5113933;28;20207;-74
2023/12/02 02:42:33;;;;;;;25.03;15.63;;;-0.60;99.90;;;-1.72;90.55;100280.16;5113934;28;20323;-75
2023/12/02 02:45:01;;;;;;;25.57;16.07;;;-0.70;99.90;;;-1.79;89.92;100273.59;5113856;28;20208;-75
2023/12/02 02:47:30;;;;;;;24.83;14.87;;;-0.70;99.90;;;-1.87;89.78;100270.59;5113620;28;20745;-75
2023/12/02 02:50:00;;;;;;;23.03;13.90;;;-0.80;99.90;;;-1.81;91.35;100259.72;5113525;28;20298;-74
2023/12/02 02:52:28;;;;;;;23.47;13.73;;;-0.60;99.90;;;-1.81;90.82;100270.22;5113948;28;20637;-74
2023/12/02 02:54:56;;;;;;;21.83;14.20;;;-0.70;99.90;;;-1.81;90.62;100259.72;5113870;28;20235;-75
2023/12/02 02:57:26;;;;;;;23.90;14.50;;;-0.80;99.90;;;-1.81;90.91;100262.34;5113786;28;20204;-74
2023/12/02 02:59:54;;;;;;;24.53;14.07;;;-0.70;99.90;;;-1.93;91.06;100265.72;5113773;28;20206;-74
2023/12/02 03:02:23;;;;;;;23.10;13.90;;;-0.80;99.90;;;-1.79;91.88;100270.97;5113686;28;20223;-75
2023/12/02 03:04:51;;;;;;;24.67;14.97;;;-0.70;99.90;;;-1.92;91.93;100264.81;5113706;28;20302;-75
2023/12/02 03:07:19;;;;;;;27.80;15.67;;;-0.80;99.90;;;-1.89;91.75;100279.50;5113631;28;20311;-74
2023/12/02 03:09:47;;;;;;;24.90;14.47;;;-0.80;99.90;;;-1.90;92.46;100270.78;5114023;28;20208;-75
2023/12/02 03:12:16;;;;;;;23.23;14.67;;;-0.80;99.90;;;-1.86;91.55;100269.66;5113318;28;20769;-74
2023/12/02 03:14:45;;;;;;;26.90;15.60;;;-0.80;99.90;;;-1.81;91.76;100275.47;5113325;28;20738;-74
2023/12/02 03:17:13;;;;;;;27.67;16.13;;;-0.80;99.90;;;-1.87;90.71;100275.84;5113613;28;20200;-74
2023/12/02 03:19:43;;;;;;;26.47;15.73;;;-0.80;99.90;;;-1.79;91.58;100278.00;5113315;28;20658;-74
2023/12/02 03:22:12;;;;;;;28.13;16.03;;;-0.80;99.90;;;-1.75;92.01;100279.50;5113469;28;20315;-75
2023/12/02 03:24:40;;;;;;;28.53;16.80;;;-0.70;99.90;;;-1.92;91.19;100274.44;5113637;28;20204;-75
2023/12/02 03:27:08;;;;;;;28.07;16.60;;;-0.80;99.90;;;-1.98;92.80;100278.25;5113635;28;20260;-75
2023/12/02 03:29:36;;;;;;;25.20;14.77;;;-0.90;99.90;;;-1.93;91.83;100284.09;5113300;28;20739;-74
2023/12/02 03:32:06;;;;;;;23.37;14.47;;;-0.80;99.90;;;-1.87;91.72;100275.84;5114701;28;20224;-74
2023/12/02 03:34:35;;;;;;;22.90;13.83;;;-0.80;99.90;;;-1.86;91.36;100271.44;5117153;28;20678;-74
2023/12/02 03:37:04;;;;;;;24.23;14.50;;;-0.80;99.90;;;-1.86;92.09;100266.19;5117560;28;20200;-74
2023/12/02 03:39:32;;;;;;;23.77;14.20;;;-0.80;99.90;;;-1.92;92.04;100267.44;5117286;28;20203;-74
2023/12/02 03:42:00;;;;;;;28.13;16.20;;;-0.80;99.90;;;-2.03;93.05;100267.22;5117299;28;20224;-74
2023/12/02 03:44:29;;;;;;;25.17;14.50;;;-0.90;99.90;;;-1.93;93.58;100264.88;5116943;28;20569;-74
2023/12/02 03:46:57;;;;;;;25.20;15.00;;;-0.80;99.90;;;-1.89;91.48;100261.13;5116804;28;20689;-75
2023/12/02 03:49:26;;;;;;;27.57;15.00;;;-0.80;99.90;;;-1.92;93.44;100267.44;5116991;28;20673;-75
2023/12/02 03:51:55;;;;;;;28.70;16.27;;;-0.70;99.90;;;-1.89;93.76;100262.00;5116811;28;20231;-74
2023/12/02 03:54:23;;;;;;;24.53;14.87;;;-0.80;99.90;;;-1.85;91.69;100263.47;5117065;28;20241;-74
2023/12/02 03:56:51;;;;;;;23.47;14.40;;;-0.70;99.90;;;-1.83;92.47;100269.47;5116699;28;20204;-74
2023/12/02 03:59:20;;;;;;;23.73;14.20;;;-0.70;99.90;;;-1.86;92.03;100272.28;5116687;27;20235;-74
2023/12/02 04:01:48;;;;;;;23.03;13.00;;;-0.80;99.90;;;-1.80;92.48;100271.06;5116903;28;20267;-73
2023/12/02 04:04:17;;;;;;;21.03;13.43;;;-0.70;99.90;;;-1.77;92.63;100274.34;5117019;28;20208;-74
2023/12/02 04:06:47;;;;;;;20.63;12.43;;;-0.70;99.90;;;-1.76;92.75;100270.78;5116821;28;20235;-74
2023/12/02 04:09:16;;;;;;;25.47;14.20;;;-0.70;99.90;;;-1.95;94.49;100272.81;5116790;28;20212;-75
2023/12/02 04:11:46;;;;;;;24.73;14.60;;;-0.90;99.90;;;-1.91;94.29;100274.34;5116722;28;20208;-75
2023/12/02 04:14:14;;;;;;;26.13;15.33;;;-0.90;99.90;;;-1.95;93.85;100270.22;5116783;28;20204;-74
2023/12/02 04:16:43;;;;;;;24.13;14.50;;;-0.90;99.90;;;-1.92;93.99;100280.53;5116744;28;20239;-75
2023/12/02 04:19:12;;;;;;;28.57;16.10;;;-0.90;99.90;;;-1.99;93.98;100271.34;5116289;28;20685;-74
2023/12/02 04:21:43;;;;;;;27.87;15.43;;;-0.90;99.90;;;-1.88;92.71;100275.94;5116444;28;20287;-74
2023/12/02 04:24:12;;;;;;;29.13;16.73;;;-0.80;99.90;;;-1.85;93.26;100278.38;5117331;28;20299;-75
2023/12/02 04:26:41;;;;;;;31.07;16.53;;;-0.80;99.90;;;-1.99;93.45;100275.75;5116411;28;20220;-74
2023/12/02 04:29:09;;;;;;;30.80;17.80;;;-0.90;99.90;;;-2.14;93.53;100277.50;5116737;28;20207;-75
2023/12/02 04:31:37;;;;;;;32.30;17.47;;;-1.00;99.90;;;-2.20;94.12;100285.75;5116586;28;20210;-73
2023/12/02 04:34:05;;;;;;;32.53;17.80;;;-1.10;99.90;;;-2.12;94.31;100286.97;5116374;28;20200;-74
2023/12/02 04:36:33;;;;;;;32.70;16.93;;;-1.00;99.90;;;-2.00;93.47;100288.00;5116282;28;20212;-74
2023/12/02 04:39:03;;;;;;;28.23;16.70;;;-0.90;99.90;;;-1.91;94.21;100287.44;5115888;28;20636;-75
2023/12/02 04:41:33;;;;;;;31.17;17.03;;;-0.80;99.90;;;-1.85;93.69;100288.88;5115770;28;20744;-74
2023/12/02 04:44:01;;;;;;;33.30;17.13;;;-0.70;99.90;;;-1.80;94.00;100286.81;5116000;28;20287;-74
2023/12/02 04:46:29;;;;;;;31.40;19.03;;;-0.70;99.90;;;-1.86;92.44;100288.03;5116288;28;20254;-74
2023/12/02 04:48:58;;;;;;;33.93;18.67;;;-0.70;99.90;;;-1.81;92.11;100293.81;5115724;28;20674;-74
2023/12/02 04:51:26;;;;;;;35.20;18.93;;;-0.80;99.90;;;-2.00;92.17;100301.13;5115749;28;20208;-74
2023/12/02 04:53:55;;;;;;;36.50;19.10;;;-0.80;99.90;;;-2.07;92.72;100294.56;5115617;28;20700;-74
2023/12/02 04:56:23;;;;;;;35.20;18.67;;;-0.90;99.90;;;-1.99;93.96;100296.75;5115931;28;20231;-74
2023/12/02 04:58:52;;;;;;;34.47;19.17;;;-0.90;99.90;;;-1.96;93.46;100300.03;5115992;28;20283;-74
2023/12/02 05:01:20;;;;;;;35.33;19.40;;;-0.90;99.90;;;-1.99;93.46;100294.97;5115483;28;20294;-74
2023/12/02 05:03:49;;;;;;;34.63;19.90;;;-0.80;99.90;;;-1.93;92.08;100305.06;5115862;28;20224;-75
2023/12/02 05:06:17;;;;;;;38.03;20.50;;;-0.80;99.90;;;-1.88;92.45;100296.94;5115587;28;20238;-75
2023/12/02 05:08:46;;;;;;;37.90;19.90;;;-0.80;99.90;;;-1.93;92.82;100305.06;5115300;28;20208;-75
2023/12/02 05:11:18;;;;;;;34.73;19.13;;;-0.80;99.90;;;-2.06;93.53;100296.25;5115297;28;20578;-75
2023/12/02 05:13:46;;;;;;;39.83;21.83;;;-1.00;99.90;;;-2.02;92.75;100308.22;5115439;28;20242;-74
2023/12/02 05:16:16;;;;;;;39.93;20.73;;;-0.90;99.90;;;-2.02;93.98;100300.38;5115488;28;20302;-74
2023/12/02 05:18:44;;;;;;;33.87;19.50;;;-0.90;99.90;;;-1.93;94.27;100307.69;5115388;28;20294;-74
2023/12/02 05:21:12;;;;;;;37.13;20.23;;;-0.80;99.90;;;-1.94;92.06;100306.00;5115422;28;20227;-74
2023/12/02 05:23:42;;;;;;;38.10;21.10;;;-0.80;99.90;;;-1.94;92.32;100308.63;5115231;28;20224;-74
2023/12/02 05:26:10;;;;;;;37.40;20.37;;;-0.80;99.90;;;-1.92;92.91;100298.06;5114947;28;20678;-74
2023/12/02 05:28:39;;;;;;;38.50;20.80;;;-0.80;99.90;;;-1.99;93.03;100300.22;5115184;28;20228;-74
2023/12/02 05:31:08;;;;;;;41.70;21.53;;;-0.80;99.90;;;-2.07;93.29;100300.66;5115106;28;20228;-74
2023/12/02 05:33:37;;;;;;;39.20;22.00;;;-0.90;99.90;;;-2.09;94.19;100296.44;5114981;28;20231;-74
2023/12/02 05:36:10;;;;;;;40.47;22.03;;;-1.00;99.90;;;-2.08;93.74;100298.13;5115115;28;20235;-75
2023/12/02 05:38:38;;;;;;;38.43;21.00;;;-1.00;99.90;;;-2.01;93.94;100304.69;5114754;28;20621;-74
2023/12/02 05:41:07;;;;;;;36.93;22.10;;;-0.90;99.90;;;-2.02;93.75;100308.22;5114965;28;20295;-74
2023/12/02 05:43:35;;;;;;;40.63;22.10;;;-0.90;99.90;;;-2.05;94.07;100303.16;5114969;28;20224;-74
2023/12/02 05:46:03;;;;;;;36.67;21.33;;;-0.90;99.90;;;-1.96;94.66;100301.78;5114940;28;20208;-75
2023/12/02 05:48:32;;;;;;;40.33;21.47;;;-0.70;99.90;;;-1.97;93.72;100303.56;5114846;28;20220;-75
2023/12/02 05:51:03;;;;;;;39.83;22.13;;;-0.90;99.90;;;-2.00;94.85;100311.63;5114669;28;20286;-75
2023/12/02 05:53:32;;;;;;;37.70;22.00;;;-0.90;99.90;;;-2.00;94.51;100310.78;5114804;28;20585;-74
2023/12/02 05:56:00;;;;;;;38.60;21.87;;;-0.80;99.90;;;-2.06;95.47;100312.84;5114089;28;20251;-74
2023/12/02 05:58:30;;;;;;;35.63;20.67;;;-0.90;99.90;;;-2.10;94.42;100313.09;5114329;28;20668;-75
2023/12/02 06:00:58;;;;;;;39.17;21.50;;;-1.00;99.90;;;-2.06;94.63;100312.00;5114670;28;20200;-75
2023/12/02 06:03:26;;;;;;;38.33;21.50;;;-0.90;99.90;;;-2.02;94.47;100307.41;5114502;28;20377;-75
2023/12/02 06:05:55;;;;;;;32.93;19.47;;;-0.90;99.90;;;-1.98;94.49;100314.13;5114623;28;20233;-75
2023/12/02 06:08:25;;;;;;;36.63;20.33;;;-0.90;99.90;;;-2.05;94.14;100311.03;5114461;28;20232;-75
2023/12/02 06:10:54;;;;;;;37.87;20.57;;;-0.90;99.90;;;-2.07;95.05;100315.53;5114538;28;20208;-75
2023/12/02 06:13:22;;;;;;;34.87;19.90;;;-0.80;99.90;;;-2.17;94.46;100315.25;5114505;28;20705;-75
2023/12/02 06:15:50;;;;;;;35.13;19.87;;;-1.00;99.90;;;-2.10;94.79;100321.81;5114379;28;20239;-75
2023/12/02 06:18:19;;;;;;;35.30;19.77;;;-1.00;99.90;;;-1.94;95.80;100321.75;5114174;28;20729;-75
2023/12/02 06:20:47;;;;;;;38.03;20.90;;;-0.80;99.90;;;-2.07;95.55;100315.53;5114252;28;20231;-75
2023/12/02 06:23:15;;;;;;;34.73;20.00;;;-0.90;99.90;;;-2.18;95.93;100313.56;5114182;28;20314;-75
2023/12/02 06:25:45;;;;;;;36.93;21.53;;;-1.10;99.90;;;-2.28;95.98;100316.81;5114166;28;20287;-75
2023/12/02 06:28:13;;;;;;;38.50;21.17;;;-1.10;99.90;;;-2.27;95.98;100315.88;5113935;28;20300;-75
2023/12/02 06:30:41;;;;;;;39.10;22.57;;;-1.10;99.90;;;-2.26;95.25;100321.00;5113851;28;20243;-75
2023/12/02 06:33:09;;;;;;;44.13;23.40;;;-1.10;99.90;;;-2.14;96.12;100328.19;5113838;28;20224;-75
2023/12/02 06:35:38;;;;;;;41.57;22.87;;;-1.00;99.90;;;-2.19;96.60;100321.50;5114075;28;20200;-75
2023/12/02 06:38:06;;;;;;;38.60;21.90;;;-1.10;99.90;;;-2.13;95.85;100331.66;5114033;28;20597;-75
2023/12/02 06:40:34;;;;;;;41.13;22.20;;;-1.00;99.90;;;-2.08;96.36;100332.22;5113735;28;20634;-75
2023/12/02 06:43:04;;;;;;;40.17;22.40;;;-0.90;99.90;;;-2.17;96.28;100330.97;5113962;28;20219;-75
2023/12/02 06:45:34;;;;;;;38.30;23.50;;;-1.00;99.90;;;-2.28;95.01;100338.63;5114069;28;20242;-75
2023/12/02 06:48:02;;;;;;;40.27;23.07;;;-1.00;99.90;;;-2.30;95.70;100334.41;5113869;28;20228;-75
2023/12/02 06:50:31;;;;;;;44.70;23.97;;;-1.20;99.90;;;-2.24;96.49;100334.91;5113906;28;20203;-75
2023/12/02 06:52:59;;;;;;;40.43;23.00;;;-1.10;99.90;;;-2.23;97.08;100339.22;5113511;28;20298;-75
2023/12/02 06:55:31;;;;;;;40.13;23.27;;;-1.10;99.90;;;-2.36;96.12;100338.22;5113518;28;20204;-75
2023/12/02 06:58:00;;;;;;;41.33;22.97;;;-1.20;99.90;;;-2.41;97.42;100340.28;5113872;28;20214;-75
2023/12/02 07:00:29;;;;;;;40.43;23.07;;;-1.20;99.90;;;-2.37;97.39;100346.19;5113774;28;20323;-75
2023/12/02 07:02:57;;;;;;;42.40;23.50;;;-1.20;99.90;;;-2.33;97.14;100347.69;5113440;28;20728;-74
2023/12/02 07:05:26;;;;;;;46.47;23.50;;;-1.20;99.90;;;-2.35;98.37;100358.25;5113804;28;20210;-75
2023/12/02 07:07:54;;;;;;;43.60;23.57;;;-1.10;99.90;;;-2.26;97.92;100356.91;5117876;28;20321;-74
2023/12/02 07:10:22;;;;;;;46.50;23.37;;;-1.10;99.90;;;-2.25;97.74;100363.81;5117530;28;20661;-74
2023/12/02 07:12:51;;;;;;;44.30;23.97;;;-1.00;99.90;;;-2.32;98.23;100354.63;5117868;28;20228;-74
2023/12/02 07:15:19;;;;;;;45.93;24.33;;;-1.10;99.90;;;-2.28;98.64;100370.09;5117903;28;20246;-75
2023/12/02 07:17:48;;;;;;;44.90;24.60;;;-1.10;99.90;;;-2.22;98.10;100374.13;5117792;28;20200;-75
2023/12/02 07:20:18;;;;;;;40.63;23.57;;;-1.00;99.90;;;-2.17;97.65;100370.31;5117791;28;20210;-75
2023/12/02 07:22:46;;;;;;;43.30;23.53;;;-1.00;99.90;;;-2.18;97.64;100370.41;5117593;28;20284;-75
2023/12/02 07:25:15;;;;;;;46.67;25.90;;;-1.00;99.90;;;-2.21;99.02;100368.81;5117625;28;20291;-75
2023/12/02 07:27:43;;;;;;;47.50;25.10;;;-1.00;99.90;;;-2.22;99.09;100384.63;5117640;28;20237;-75
2023/12/02 07:30:12;;;;;;;44.23;23.83;;;-1.10;99.90;;;-2.29;98.45;100378.03;5117574;28;20239;-75
2023/12/02 07:32:46;;;;;;;44.90;24.90;;;-1.10;99.90;;;-2.36;99.37;100376.72;5117541;28;20234;-75
2023/12/02 07:35:16;;;;;;;47.23;25.53;;;-1.10;99.90;;;-2.32;99.17;100383.44;5117240;28;20185;-75
2023/12/02 07:37:47;;;;;;;46.83;25.90;;;-1.10;99.90;;;-2.32;99.00;100391.31;5117552;28;20188;-75
2023/12/02 07:40:15;;;;;;;46.47;25.47;;;-1.10;99.90;;;-2.26;99.77;100383.13;5117052;28;20234;-75
2023/12/02 07:42:43;;;;;;;48.13;25.97;;;-1.10;99.90;;;-2.27;99.23;100384.03;5117355;28;20262;-75
2023/12/02 07:45:15;;;;;;;45.57;25.37;;;-1.10;99.90;;;-2.28;98.75;100382.34;5117073;28;20745;-75
2023/12/02 07:47:43;;;;;;;47.80;26.20;;;-1.10;99.90;;;-2.24;99.55;100381.25;5116926;28;20649;-75
2023/12/02 07:50:11;;;;;;;49.70;26.60;;;-1.10;99.90;;;-2.20;100.00;100390.63;5117190;28;20260;-75
2023/12/02 07:52:41;;;;;;;50.63;28.17;;;-1.00;99.90;;;-2.21;100.00;100391.56;5116580;28;20660;-75
2023/12/02 07:55:10;;;;;;;48.13;25.57;;;-1.00;99.90;;;-2.16;100.00;100400.03;5117124;28;20208;-75
2023/12/02 07:57:38;;;;;;;52.33;29.70;;;-1.00;99.90;;;-2.23;99.64;100411.78;5116991;28;20228;-75
2023/12/02 08:00:09;;;;;;;50.73;27.63;;;-1.10;99.90;;;-2.26;100.00;100409.34;5117014;28;20303;-75
2023/12/02 08:02:37;;;;;;;46.60;26.90;;;-1.10;99.90;;;-2.20;100.00;100409.00;5116932;28;20372;-75
2023/12/02 08:05:06;;;;;;;49.60;28.40;;;-1.10;99.90;;;-2.20;100.00;100401.97;5117276;28;20580;-75
2023/12/02 08:07:37;;;;;;;47.37;26.77;;;-1.00;99.90;;;-2.12;100.00;100401.50;5116986;28;20202;-75
2023/12/02 08:10:09;;;;;;;45.57;27.13;;;-0.90;99.90;;;-2.10;100.00;100405.75;5116708;28;20639;-75
2023/12/02 08:12:37;;;;;;;45.73;26.43;;;-1.00;99.90;;;-2.14;100.00;100403.38;5116612;28;20280;-75
2023/12/02 08:15:07;;;;;;;48.83;29.10;;;-1.00;99.90;;;-2.21;100.00;100412.53;5116647;28;20231;-75
2023/12/02 08:17:35;;;;;;;57.67;32.37;;;-1.00;99.90;;;-2.19;100.00;100411.50;5115984;28;20226;-75
2023/12/02 08:20:05;;;;;;;52.00;27.70;;;-1.00;99.90;;;-2.17;100.00;100419.31;5116288;28;20201;-75
2023/12/02 08:22:34;;;;;;;51.63;29.40;;;-1.00;99.90;;;-2.15;100.00;100422.66;5116453;28;20277;-75
2023/12/02 08:25:02;;;;;;;52.77;29.10;;;-0.70;99.90;;;-2.15;99.83;100423.50;5116555;28;20204;-75
2023/12/02 08:27:32;;;;;;;50.70;27.07;;;-1.00;99.90;;;-2.15;100.00;100433.16;5116452;28;20200;-75
2023/12/02 08:30:00;;;;;;;50.63;28.07;;;-1.00;99.90;;;-2.17;100.00;100432.41;5116036;28;20788;-74
2023/12/02 08:32:28;;;;;;;48.57;27.90;;;-1.00;99.90;;;-2.11;100.00;100432.06;5116328;28;20224;-74
2023/12/02 08:34:56;;;;;;;49.67;26.47;;;-0.90;99.90;;;-2.21;99.58;100428.25;5116060;28;20204;-75
2023/12/02 08:37:25;;;;;;;48.03;26.37;;;-1.00;99.90;;;-2.26;100.00;100439.00;5116347;28;20206;-74
2023/12/02 08:39:53;;;;;;;48.73;26.47;;;-1.00;99.90;;;-2.22;100.00;100442.31;5116235;28;20257;-75
2023/12/02 08:42:21;;;;;;;50.13;26.83;;;-1.10;99.90;;;-2.14;100.00;100445.34;5116093;28;20711;-74
2023/12/02 08:44:51;;;;;;;51.77;26.63;;;-0.90;99.90;;;-2.19;100.00;100442.13;5116129;28;20208;-74
2023/12/02 08:47:19;;;;;;;51.80;26.40;;;-1.00;99.90;;;-2.17;100.00;100440.28;5115811;28;20662;-75
2023/12/02 08:49:47;;;;;;;51.30;25.73;;;-1.00;99.90;;;-2.23;100.00;100436.25;5116009;28;20323;-75
2023/12/02 08:52:15;;;;;;;49.20;27.03;;;-0.90;99.90;;;-2.19;100.00;100439.50;5115654;28;20239;-75
2023/12/02 08:54:43;;;;;;;76.03;44.27;;;-1.10;99.90;;;-2.08;100.00;100439.75;5115641;28;20705;-75
2023/12/02 08:57:12;;;;;;;58.83;34.17;;;-0.90;99.90;;;-2.01;100.00;100437.59;5116020;28;20312;-75
2023/12/02 08:59:40;;;;;;;49.83;26.67;;;-0.80;99.90;;;-1.98;100.00;100446.16;5115930;28;20250;-75
2023/12/02 09:02:10;;;;;;;49.77;26.23;;;-0.80;99.90;;;-1.96;100.00;100448.69;5115713;28;20647;-75
2023/12/02 09:04:38;;;;;;;47.23;24.47;;;-0.80;99.90;;;-1.99;100.00;100444.47;5115790;28;20257;-75
2023/12/02 09:07:06;;;;;;;47.97;27.40;;;-0.80;99.90;;;-1.94;100.00;100457.31;5115677;28;20200;-75
2023/12/02 09:09:35;;;;;;;50.57;26.60;;;-0.60;99.90;;;-1.99;100.00;100454.97;5115629;28;20650;-76
2023/12/02 09:12:03;;;;;;;49.63;25.83;;;-0.80;99.90;;;-1.93;99.90;100454.63;5115572;28;20224;-75
2023/12/02 09:14:31;;;;;;;50.30;25.87;;;-0.70;99.90;;;-1.96;100.00;100460.03;5115324;28;20204;-75
2023/12/02 09:17:00;;;;;;;52.77;28.13;;;-0.80;99.90;;;-1.96;99.95;100459.19;5115497;28;20204;-75
2023/12/02 09:19:54;;;;;;;52.87;27.00;;;-0.80;99.90;;;-1.91;100.00;100457.97;5115500;28;20291;-75
2023/12/02 09:22:47;;;;;;;52.97;27.80;;;-0.80;99.90;;;-1.93;100.00;100459.88;5115358;28;20598;-75
2023/12/02 09:25:28;;;;;;;52.13;26.83;;;-0.80;99.90;;;-1.94;99.80;100462.56;5115103;28;20229;-75
2023/12/02 09:28:20;;;;;;;57.83;29.27;;;-0.70;99.90;;;-1.94;100.00;100463.41;5115448;28;20192;-75
2023/12/02 09:31:00;;;;;;;61.57;29.97;;;-0.80;99.90;;;-1.91;100.00;100462.38;5113914;28;20299;-75
2023/12/02 09:33:38;;;;;;;54.20;27.17;;;-0.80;99.90;;;-1.91;99.61;100465.00;5115130;28;20224;-75
2023/12/02 09:36:31;;;;;;;50.23;26.60;;;-0.70;99.90;;;-1.92;99.55;100465.97;5114900;28;20188;-75
2023/12/02 09:39:56;;;;;;;49.53;26.13;;;-0.80;99.90;;;-1.88;100.00;100457.81;5115089;28;20208;-75
2023/12/02 09:42:27;;;;;;;52.73;26.77;;;-0.70;99.90;;;-1.91;100.00;100463.22;5114960;28;20256;-75
2023/12/02 09:45:04;;;;;;;56.97;28.20;;;-0.80;99.90;;;-1.89;100.00;100465.78;5114685;28;20250;-75
2023/12/02 09:47:42;;;;;;;53.70;27.70;;;-0.70;99.90;;;-1.84;100.00;100459.31;5114611;28;20249;-75
2023/12/02 09:50:18;;;;;;;53.27;26.73;;;-0.70;99.90;;;-1.80;100.00;100455.59;5114859;28;20208;-75
2023/12/02 09:53:06;;;;;;;55.93;28.60;;;-0.70;99.90;;;-1.82;100.00;100457.47;5114270;28;20242;-75
2023/12/02 09:55:38;;;;;;;50.20;27.63;;;-0.60;99.90;;;-1.79;100.00;100457.28;5114798;28;20245;-75
2023/12/02 09:58:24;;;;;;;53.87;27.43;;;-0.60;99.90;;;-1.70;100.00;100445.41;5114459;28;20184;-76
2023/12/02 10:01:00;;;;;;;53.33;27.40;;;-0.60;99.90;;;-1.65;100.00;100449.47;5114679;28;20521;-76
2023/12/02 10:03:50;;;;;;;54.70;29.27;;;-0.40;99.90;;;-1.60;99.69;100457.88;5114384;28;20259;-75
2023/12/02 10:06:47;;;;;;;51.40;27.93;;;-0.30;99.90;;;-1.62;100.00;100449.28;5114571;28;20226;-75
2023/12/02 10:09:40;;;;;;;51.80;28.33;;;-0.50;99.90;;;-1.58;99.72;100448.16;5114128;28;20212;-75